createdAt,value
2019-05-19T00:02:13.853Z,47.50
2019-05-19T00:04:42.016Z,47.30
2019-05-19T00:07:10.202Z,47.49
2019-05-19T00:09:38.346Z,62.56
2019-05-19T00:12:06.478Z,48.65
2019-05-19T00:14:34.678Z,47.90
2019-05-19T00:17:02.818Z,47.27
2019-05-19T00:19:30.995Z,47.34
2019-05-19T00:21:59.165Z,47.32
2019-05-19T00:24:27.309Z,47.45
2019-05-19T00:26:55.620Z,47.52
2019-05-19T00:29:23.775Z,47.24
2019-05-19T00:31:51.959Z,47.57
2019-05-19T00:34:20.095Z,47.26
2019-05-19T00:36:48.223Z,47.56
2019-05-19T00:39:16.383Z,47.35
2019-05-19T00:41:44.573Z,47.46
2019-05-19T00:44:12.761Z,47.87
2019-05-19T00:46:41.054Z,47.79
2019-05-19T00:49:09.273Z,62.11
2019-05-19T00:51:37.913Z,55.79
2019-05-19T00:54:06.063Z,50.80
2019-05-19T00:56:34.795Z,48.34
2019-05-19T00:59:05.059Z,47.65
2019-05-19T01:01:33.243Z,47.65
2019-05-19T01:04:01.403Z,47.83
2019-05-19T01:06:29.595Z,47.49
2019-05-19T01:08:57.779Z,47.93
2019-05-19T01:11:25.940Z,48.11
2019-05-19T01:13:54.089Z,47.47
2019-05-19T01:16:22.265Z,47.22
2019-05-19T01:18:50.410Z,47.25
2019-05-19T01:21:18.763Z,47.13
2019-05-19T01:23:46.916Z,46.94
2019-05-19T01:26:15.126Z,47.06
2019-05-19T01:28:43.285Z,47.42
2019-05-19T01:31:11.459Z,47.12
2019-05-19T01:33:39.725Z,47.77
2019-05-19T01:36:07.891Z,48.16
2019-05-19T01:38:36.055Z,47.48
2019-05-19T01:41:04.254Z,47.05
2019-05-19T01:43:32.459Z,47.22
2019-05-19T01:46:00.715Z,47.48
2019-05-19T01:48:28.863Z,47.50
2019-05-19T01:50:56.987Z,47.62
2019-05-19T01:53:25.139Z,46.92
2019-05-19T01:55:53.295Z,47.18
2019-05-19T01:58:21.417Z,47.41
2019-05-19T02:00:49.536Z,52.86
2019-05-19T02:03:17.748Z,54.40
2019-05-19T02:05:45.897Z,48.97
2019-05-19T02:08:14.050Z,49.13
2019-05-19T02:10:42.150Z,48.08
2019-05-19T02:13:10.263Z,47.39
2019-05-19T02:15:38.351Z,47.06
2019-05-19T02:18:06.506Z,46.77
2019-05-19T02:20:34.701Z,46.28
2019-05-19T02:23:02.858Z,46.42
2019-05-19T02:25:30.987Z,46.70
2019-05-19T02:27:59.146Z,47.72
2019-05-19T02:30:27.280Z,46.86
2019-05-19T02:32:56.832Z,47.69
2019-05-19T02:35:24.952Z,46.30
2019-05-19T02:37:53.058Z,45.97
2019-05-19T02:40:21.189Z,45.94
2019-05-19T02:42:51.206Z,46.26
2019-05-19T02:45:19.514Z,46.24
2019-05-19T02:47:49.791Z,46.81
2019-05-19T02:50:18.021Z,46.35
2019-05-19T02:52:49.128Z,46.24
2019-05-19T02:55:19.416Z,46.01
2019-05-19T02:57:48.889Z,46.11
2019-05-19T03:00:17.124Z,46.04
2019-05-19T03:02:45.254Z,45.91
2019-05-19T03:05:13.606Z,46.14
2019-05-19T03:07:41.747Z,46.12
2019-05-19T03:10:10.004Z,45.86
2019-05-19T03:12:38.160Z,45.82
2019-05-19T03:15:06.475Z,46.09
2019-05-19T03:17:35.352Z,46.30
2019-05-19T03:20:03.461Z,46.93
2019-05-19T03:22:31.635Z,47.54
2019-05-19T03:24:59.732Z,47.41
2019-05-19T03:27:27.828Z,46.69
2019-05-19T03:29:58.415Z,46.29
2019-05-19T03:32:32.251Z,69.63
2019-05-19T03:35:00.439Z,72.65
2019-05-19T03:37:28.604Z,49.51
2019-05-19T03:39:56.738Z,48.86
2019-05-19T03:42:24.859Z,47.35
2019-05-19T03:44:53.009Z,46.24
2019-05-19T03:47:21.188Z,45.94
2019-05-19T03:49:49.309Z,45.59
2019-05-19T03:52:17.410Z,47.11
2019-05-19T03:54:45.491Z,46.97
2019-05-19T03:57:13.667Z,47.33
2019-05-19T03:59:41.824Z,58.83
2019-05-19T04:02:09.967Z,50.32
2019-05-19T04:04:38.111Z,72.57
2019-05-19T04:07:06.249Z,57.47
2019-05-19T04:09:34.356Z,49.91
2019-05-19T04:12:02.547Z,48.51
2019-05-19T04:14:30.786Z,68.82
2019-05-19T04:16:58.900Z,74.72
2019-05-19T04:19:27.012Z,54.05
2019-05-19T04:21:55.206Z,61.79
2019-05-19T04:24:23.353Z,72.29
2019-05-19T04:26:51.543Z,75.09
2019-05-19T04:29:19.729Z,76.09
2019-05-19T04:31:47.820Z,68.84
2019-05-19T04:34:15.977Z,65.88
2019-05-19T04:36:44.139Z,76.48
2019-05-19T04:39:12.240Z,77.72
2019-05-19T04:41:40.561Z,78.65
2019-05-19T04:44:08.655Z,78.33
2019-05-19T04:46:36.783Z,78.49
2019-05-19T04:49:04.938Z,78.72
2019-05-19T04:51:33.117Z,78.43
2019-05-19T04:54:01.264Z,78.54
2019-05-19T04:56:29.388Z,78.29
2019-05-19T04:58:57.477Z,78.10
2019-05-19T05:01:25.603Z,76.02
2019-05-19T05:03:53.876Z,76.84
2019-05-19T05:06:21.989Z,77.96
2019-05-19T05:08:50.109Z,73.74
2019-05-19T05:11:18.240Z,77.87
2019-05-19T05:13:46.379Z,75.10
2019-05-19T05:16:14.518Z,77.28
2019-05-19T05:18:42.678Z,77.74
2019-05-19T05:21:10.773Z,77.03
2019-05-19T05:23:39.011Z,77.64
2019-05-19T05:26:07.119Z,74.80
2019-05-19T05:28:35.250Z,74.75
2019-05-19T05:31:03.383Z,76.32
2019-05-19T05:33:31.502Z,76.79
2019-05-19T05:35:59.669Z,77.13
2019-05-19T05:38:27.788Z,77.20
2019-05-19T05:40:56.005Z,76.83
2019-05-19T05:43:24.121Z,54.50
2019-05-19T05:45:52.273Z,75.11
2019-05-19T05:48:20.411Z,74.47
2019-05-19T05:50:48.515Z,73.89
2019-05-19T05:53:16.686Z,75.01
2019-05-19T05:55:44.899Z,71.51
2019-05-19T05:58:13.101Z,73.50
2019-05-19T06:00:41.213Z,72.29
2019-05-19T06:03:09.343Z,69.32
2019-05-19T06:05:37.425Z,66.37
2019-05-19T06:08:05.564Z,68.96
2019-05-19T06:10:33.750Z,68.25
2019-05-19T06:13:01.926Z,69.21
2019-05-19T06:15:30.162Z,69.36
2019-05-19T06:18:01.278Z,69.58
2019-05-19T06:20:29.465Z,69.32
2019-05-19T06:22:57.990Z,69.19
2019-05-19T06:25:26.501Z,68.80
2019-05-19T06:27:54.747Z,68.67
2019-05-19T06:30:22.965Z,66.66
2019-05-19T06:32:53.006Z,55.55
2019-05-19T06:35:21.215Z,64.01
2019-05-19T06:37:49.374Z,64.94
2019-05-19T06:40:17.527Z,61.68
2019-05-19T06:42:45.724Z,61.54
2019-05-19T06:45:15.654Z,62.38
2019-05-19T06:47:43.816Z,62.67
2019-05-19T06:50:12.248Z,59.47
2019-05-19T06:52:40.524Z,59.75
2019-05-19T06:55:08.870Z,59.56
2019-05-19T06:57:37.059Z,58.92
2019-05-19T07:00:06.422Z,57.68
2019-05-19T07:02:34.695Z,56.88
2019-05-19T07:05:03.043Z,57.43
2019-05-19T07:07:31.146Z,50.17
2019-05-19T07:09:59.259Z,53.41
2019-05-19T07:12:27.409Z,52.78
2019-05-19T07:14:55.549Z,53.05
2019-05-19T07:17:23.756Z,53.45
2019-05-19T07:19:51.994Z,46.64
2019-05-19T07:22:20.135Z,53.83
2019-05-19T07:24:48.294Z,46.43
2019-05-19T07:27:16.437Z,51.23
2019-05-19T07:29:44.647Z,47.70
2019-05-19T07:32:12.830Z,47.69
2019-05-19T07:34:40.977Z,46.09
2019-05-19T07:37:09.078Z,46.14
2019-05-19T07:39:37.284Z,45.46
2019-05-19T07:42:05.462Z,46.44
2019-05-19T07:44:33.596Z,45.26
2019-05-19T07:47:01.730Z,44.97
2019-05-19T07:49:29.945Z,44.33
2019-05-19T07:51:58.094Z,44.33
2019-05-19T07:54:26.300Z,43.90
2019-05-19T07:56:54.438Z,44.58
2019-05-19T07:59:22.584Z,44.03
2019-05-19T08:01:50.811Z,44.08
2019-05-19T08:04:19.067Z,43.76
2019-05-19T08:06:47.256Z,43.24
2019-05-19T08:09:15.546Z,43.72
2019-05-19T08:11:43.706Z,43.28
2019-05-19T08:14:11.934Z,42.02
2019-05-19T08:16:40.166Z,42.10
2019-05-19T08:19:08.326Z,42.21
2019-05-19T08:21:36.491Z,41.80
2019-05-19T08:24:04.783Z,42.31
2019-05-19T08:26:33.024Z,41.63
2019-05-19T08:29:01.192Z,36.99
2019-05-19T08:31:29.394Z,41.79
2019-05-19T08:33:57.799Z,36.88
2019-05-19T08:36:26.081Z,40.59
2019-05-19T08:38:54.271Z,40.50
2019-05-19T08:41:22.418Z,39.58
2019-05-19T08:43:53.264Z,36.00
2019-05-19T08:46:20.630Z,38.48
2019-05-19T08:48:48.785Z,38.11
2019-05-19T08:51:16.965Z,37.00
2019-05-19T08:53:45.076Z,33.96
2019-05-19T08:56:13.232Z,35.36
2019-05-19T08:58:41.389Z,36.18
2019-05-19T09:01:09.553Z,35.03
2019-05-19T09:03:37.859Z,36.36
2019-05-19T09:06:06.020Z,36.75
2019-05-19T09:08:34.217Z,37.57
2019-05-19T09:11:02.367Z,37.62
2019-05-19T09:13:30.798Z,32.45
2019-05-19T09:15:58.999Z,37.13
2019-05-19T09:18:27.223Z,36.56
2019-05-19T09:20:55.604Z,36.06
2019-05-19T09:23:23.829Z,34.69
2019-05-19T09:25:52.091Z,37.04
2019-05-19T09:28:20.216Z,36.96
2019-05-19T09:30:48.383Z,38.50
2019-05-19T09:33:16.646Z,35.83
2019-05-19T09:35:44.857Z,28.65
2019-05-19T09:38:13.072Z,33.21
2019-05-19T09:40:41.280Z,30.34
2019-05-19T09:43:09.422Z,36.48
2019-05-19T09:45:37.552Z,33.94
2019-05-19T09:48:05.699Z,33.52
2019-05-19T09:50:33.883Z,29.28
2019-05-19T09:53:02.208Z,33.55
2019-05-19T09:55:30.428Z,33.68
2019-05-19T09:57:58.587Z,37.82
2019-05-19T10:00:26.705Z,33.43
2019-05-19T10:02:54.952Z,33.76
2019-05-19T10:05:23.132Z,34.41
2019-05-19T10:07:51.346Z,32.49
2019-05-19T10:10:42.678Z,29.58
2019-05-19T10:13:10.868Z,31.35
2019-05-19T10:15:39.104Z,32.24
2019-05-19T10:18:07.655Z,31.81
2019-05-19T10:20:35.851Z,29.72
2019-05-19T10:23:04.034Z,29.20
2019-05-19T10:25:32.172Z,30.64
2019-05-19T10:28:00.400Z,29.13
2019-05-19T10:30:28.598Z,30.84
2019-05-19T10:32:58.888Z,29.52
2019-05-19T10:35:27.230Z,29.96
2019-05-19T10:37:55.474Z,28.37
2019-05-19T10:40:23.729Z,29.51
2019-05-19T10:42:51.900Z,30.54
2019-05-19T10:45:20.043Z,30.91
2019-05-19T10:47:48.171Z,30.28
2019-05-19T10:50:16.362Z,30.84
2019-05-19T10:52:44.623Z,34.51
2019-05-19T10:55:13.035Z,30.27
2019-05-19T10:57:41.254Z,31.97
2019-05-19T11:00:09.747Z,29.90
2019-05-19T11:02:37.896Z,31.29
2019-05-19T11:05:06.812Z,33.35
2019-05-19T11:07:34.994Z,30.20
2019-05-19T11:10:03.102Z,28.40
2019-05-19T11:12:31.316Z,27.76
2019-05-19T11:14:59.526Z,29.17
2019-05-19T11:17:27.798Z,28.40
2019-05-19T11:19:56.023Z,26.62
2019-05-19T11:22:24.258Z,27.95
2019-05-19T11:24:52.423Z,27.15
2019-05-19T11:27:20.706Z,27.31
2019-05-19T11:29:48.941Z,30.23
2019-05-19T11:32:17.142Z,29.78
2019-05-19T11:34:45.266Z,29.65
2019-05-19T11:37:13.410Z,30.47
2019-05-19T11:39:41.644Z,30.30
2019-05-19T11:42:09.836Z,26.64
2019-05-19T11:44:38.064Z,27.73
2019-05-19T11:47:06.209Z,25.15
2019-05-19T11:49:34.482Z,19.70
2019-05-19T11:52:02.726Z,26.81
2019-05-19T11:54:30.893Z,26.08
2019-05-19T11:56:59.109Z,19.68
2019-05-19T11:59:27.339Z,24.42
2019-05-19T12:01:56.034Z,20.84
2019-05-19T12:04:24.296Z,23.75
2019-05-19T12:06:52.493Z,22.89
2019-05-19T12:09:20.754Z,25.50
2019-05-19T12:11:48.967Z,24.85
2019-05-19T12:14:17.319Z,24.33
2019-05-19T12:16:45.548Z,24.65
2019-05-19T12:19:13.912Z,24.28
2019-05-19T12:21:42.088Z,23.22
2019-05-19T12:24:10.332Z,22.23
2019-05-19T12:26:38.516Z,27.51
2019-05-19T12:29:06.687Z,22.94
2019-05-19T12:31:34.854Z,19.17
2019-05-19T12:34:03.033Z,24.43
2019-05-19T12:36:31.344Z,18.08
2019-05-19T12:38:59.579Z,23.80
2019-05-19T12:41:27.854Z,24.19
2019-05-19T12:43:56.108Z,24.19
2019-05-19T12:46:24.318Z,22.36
2019-05-19T12:48:52.595Z,23.53
2019-05-19T12:51:20.807Z,23.16
2019-05-19T12:53:49.019Z,21.91
2019-05-19T12:56:17.223Z,18.18
2019-05-19T12:58:45.495Z,21.26
2019-05-19T13:01:13.685Z,20.66
2019-05-19T13:03:41.933Z,20.66
2019-05-19T13:06:10.257Z,20.36
2019-05-19T13:08:38.379Z,21.80
2019-05-19T13:11:06.586Z,20.07
2019-05-19T13:13:34.817Z,15.19
2019-05-19T13:16:03.145Z,20.11
2019-05-19T13:18:31.315Z,19.31
2019-05-19T13:20:59.615Z,20.67
2019-05-19T13:23:27.923Z,19.23
2019-05-19T13:25:56.137Z,21.40
2019-05-19T13:28:24.358Z,22.01
2019-05-19T13:30:52.508Z,20.60
2019-05-19T13:33:20.763Z,17.87
2019-05-19T13:35:48.935Z,20.58
2019-05-19T13:38:17.155Z,18.51
2019-05-19T13:40:45.358Z,18.67
2019-05-19T13:43:13.534Z,18.44
2019-05-19T13:45:41.734Z,17.86
2019-05-19T13:48:09.868Z,18.20
2019-05-19T13:50:38.052Z,18.34
2019-05-19T13:53:06.270Z,18.42
2019-05-19T13:55:34.447Z,14.37
2019-05-19T13:58:03.613Z,18.32
2019-05-19T14:00:31.860Z,19.10
2019-05-19T14:03:00.094Z,18.47
2019-05-19T14:05:28.337Z,21.44
2019-05-19T14:07:56.741Z,19.52
2019-05-19T14:10:24.963Z,18.41
2019-05-19T14:12:53.181Z,18.29
2019-05-19T14:15:21.453Z,16.06
2019-05-19T14:17:49.609Z,19.68
2019-05-19T14:20:18.046Z,17.70
2019-05-19T14:22:46.263Z,19.68
2019-05-19T14:25:15.896Z,19.27
2019-05-19T14:27:44.068Z,20.42
2019-05-19T14:30:12.910Z,19.78
2019-05-19T14:32:41.233Z,19.44
2019-05-19T14:35:09.565Z,19.27
2019-05-19T14:37:37.832Z,20.51
2019-05-19T14:40:07.645Z,19.74
2019-05-19T14:42:50.052Z,19.08
2019-05-19T14:45:19.412Z,20.28
2019-05-19T14:47:47.562Z,18.71
2019-05-19T14:50:16.458Z,20.97
2019-05-19T14:52:44.614Z,19.52
2019-05-19T14:55:13.425Z,20.79
2019-05-19T14:57:45.314Z,19.51
2019-05-19T15:00:12.129Z,19.05
2019-05-19T15:02:39.410Z,20.43
2019-05-19T15:05:07.575Z,21.12
2019-05-19T15:07:35.788Z,20.08
2019-05-19T15:10:03.977Z,15.00
2019-05-19T15:12:32.221Z,21.26
2019-05-19T15:15:00.559Z,20.84
2019-05-19T15:17:28.748Z,21.67
2019-05-19T15:19:57.031Z,21.10
2019-05-19T15:22:25.200Z,20.71
2019-05-19T15:24:53.417Z,20.35
2019-05-19T15:27:21.709Z,20.27
2019-05-19T15:29:49.886Z,20.37
2019-05-19T15:32:18.099Z,21.18
2019-05-19T15:34:46.339Z,22.72
2019-05-19T15:37:14.543Z,22.30
2019-05-19T15:39:42.734Z,21.90
2019-05-19T15:42:10.964Z,21.90
2019-05-19T15:44:39.190Z,22.68
2019-05-19T15:47:07.382Z,22.09
2019-05-19T15:49:35.522Z,21.48
2019-05-19T15:52:05.545Z,22.77
2019-05-19T15:54:33.701Z,22.00
2019-05-19T15:57:01.911Z,19.10
2019-05-19T15:59:30.092Z,21.66
2019-05-19T16:01:58.260Z,21.79
2019-05-19T16:04:26.513Z,21.56
2019-05-19T16:06:54.687Z,22.45
2019-05-19T16:09:22.900Z,22.52
2019-05-19T16:11:51.067Z,21.09
2019-05-19T16:14:19.215Z,21.39
2019-05-19T16:16:47.453Z,23.51
2019-05-19T16:19:15.664Z,18.65
2019-05-19T16:21:43.887Z,21.60
2019-05-19T16:24:12.113Z,21.20
2019-05-19T16:26:40.293Z,21.09
2019-05-19T16:29:08.480Z,20.85
2019-05-19T16:31:36.628Z,22.22
2019-05-19T16:34:04.811Z,21.49
2019-05-19T16:36:33.016Z,22.78
2019-05-19T16:39:01.202Z,22.18
2019-05-19T16:41:29.411Z,21.69
2019-05-19T16:43:57.739Z,21.08
2019-05-19T16:46:26.076Z,22.39
2019-05-19T16:48:54.300Z,21.64
2019-05-19T16:51:22.517Z,21.43
2019-05-19T16:53:52.842Z,21.47
2019-05-19T16:56:21.054Z,21.87
2019-05-19T16:58:49.335Z,22.19
2019-05-19T17:01:19.992Z,22.94
2019-05-19T17:03:47.427Z,22.46
2019-05-19T17:06:15.769Z,22.14
2019-05-19T17:08:43.985Z,21.67
2019-05-19T17:11:18.413Z,21.95
2019-05-19T17:13:42.238Z,21.95
2019-05-19T17:16:10.477Z,18.71
2019-05-19T17:18:38.680Z,22.80
2019-05-19T17:21:06.913Z,22.71
2019-05-19T17:23:35.165Z,22.56
2019-05-19T17:26:03.410Z,22.57
2019-05-19T17:28:31.608Z,22.50
2019-05-19T17:30:59.972Z,22.59
2019-05-19T17:33:28.276Z,22.62
2019-05-19T17:35:56.560Z,22.73
2019-05-19T17:38:24.755Z,23.04
2019-05-19T17:40:52.974Z,22.88
2019-05-19T17:43:21.196Z,23.63
2019-05-19T17:45:49.362Z,25.24
2019-05-19T17:48:26.101Z,23.82
2019-05-19T17:50:47.456Z,23.83
2019-05-19T17:53:15.678Z,23.71
2019-05-19T17:55:45.050Z,24.01
2019-05-19T17:58:12.287Z,24.05
2019-05-19T18:00:42.004Z,26.01
2019-05-19T18:03:10.614Z,25.09
2019-05-19T18:05:39.179Z,25.17
2019-05-19T18:08:07.409Z,25.88
2019-05-19T18:10:35.644Z,25.45
2019-05-19T18:13:03.857Z,25.46
2019-05-19T18:15:32.612Z,25.64
2019-05-19T18:18:00.730Z,25.62
2019-05-19T18:20:28.933Z,25.65
2019-05-19T18:22:57.595Z,25.92
2019-05-19T18:25:25.792Z,26.05
2019-05-19T18:27:53.999Z,26.21
2019-05-19T18:30:22.254Z,27.54
2019-05-19T18:32:50.428Z,30.89
2019-05-19T18:35:18.580Z,38.45
2019-05-19T18:37:46.846Z,38.77
2019-05-19T18:40:15.016Z,36.85
2019-05-19T18:42:43.195Z,33.99
2019-05-19T18:45:11.325Z,31.70
2019-05-19T18:47:39.885Z,30.81
2019-05-19T18:50:08.255Z,30.81
2019-05-19T18:52:36.533Z,29.57
2019-05-19T18:55:05.073Z,29.44
2019-05-19T18:57:33.274Z,29.62
2019-05-19T19:00:01.593Z,29.76
2019-05-19T19:02:29.846Z,30.39
2019-05-19T19:04:57.999Z,30.60
2019-05-19T19:07:45.120Z,30.52
2019-05-19T19:10:13.303Z,30.68
2019-05-19T19:12:41.500Z,30.78
2019-05-19T19:15:09.679Z,31.69
2019-05-19T19:17:39.163Z,31.39
2019-05-19T19:20:07.436Z,31.37
2019-05-19T19:22:35.606Z,31.59
2019-05-19T19:25:03.853Z,31.93
2019-05-19T19:27:32.149Z,32.09
2019-05-19T19:30:03.364Z,32.25
2019-05-19T19:32:30.193Z,34.93
2019-05-19T19:34:58.343Z,33.15
2019-05-19T19:37:26.543Z,33.06
2019-05-19T19:39:54.716Z,32.96
2019-05-19T19:42:23.217Z,34.02
2019-05-19T19:44:51.390Z,34.68
2019-05-19T19:47:19.595Z,34.73
2019-05-19T19:49:47.748Z,34.89
2019-05-19T19:52:15.953Z,34.59
2019-05-19T19:54:44.079Z,34.90
2019-05-19T19:57:12.259Z,35.19
2019-05-19T19:59:40.436Z,35.47
2019-05-19T20:02:08.573Z,35.56
2019-05-19T20:04:36.833Z,35.70
2019-05-19T20:07:04.985Z,35.97
2019-05-19T20:09:33.491Z,36.33
2019-05-19T20:12:01.611Z,36.36
2019-05-19T20:14:29.809Z,36.77
2019-05-19T20:16:58.041Z,36.97
2019-05-19T20:19:26.436Z,37.02
2019-05-19T20:21:54.753Z,37.18
2019-05-19T20:24:22.945Z,37.98
2019-05-19T20:26:51.087Z,38.26
2019-05-19T20:29:19.173Z,38.17
2019-05-19T20:31:47.283Z,38.69
2019-05-19T20:34:15.524Z,38.44
2019-05-19T20:36:43.646Z,38.61
2019-05-19T20:39:11.777Z,38.74
2019-05-19T20:41:39.973Z,38.96
2019-05-19T20:44:08.085Z,38.84
2019-05-19T20:46:36.243Z,38.89
2019-05-19T20:49:04.342Z,39.01
2019-05-19T20:51:34.092Z,38.99
2019-05-19T20:54:02.339Z,39.34
2019-05-19T20:56:30.625Z,39.63
2019-05-19T20:58:58.819Z,39.56
2019-05-19T21:01:27.026Z,39.98
2019-05-19T21:03:55.270Z,39.96
2019-05-19T21:06:23.439Z,39.91
2019-05-19T21:08:51.679Z,40.08
2019-05-19T21:11:19.847Z,40.14
2019-05-19T21:13:48.166Z,40.37
2019-05-19T21:16:16.355Z,40.40
2019-05-19T21:18:44.582Z,40.72
2019-05-19T21:21:12.798Z,41.08
2019-05-19T21:23:41.052Z,41.06
2019-05-19T21:26:09.227Z,41.40
2019-05-19T21:28:37.434Z,41.29
2019-05-19T21:31:06.417Z,41.23
2019-05-19T21:33:34.675Z,42.65
2019-05-19T21:36:02.883Z,44.37
2019-05-19T21:38:31.036Z,42.50
2019-05-19T21:40:59.321Z,49.93
2019-05-19T21:43:27.562Z,44.34
2019-05-19T21:45:55.705Z,42.78
2019-05-19T21:48:34.212Z,42.72
2019-05-19T21:51:02.526Z,42.57
2019-05-19T21:53:30.729Z,42.55
2019-05-19T21:55:59.700Z,42.60
2019-05-19T21:58:27.816Z,42.71
2019-05-19T22:00:55.935Z,42.91
2019-05-19T22:03:24.064Z,42.90
2019-05-19T22:05:53.671Z,43.23
2019-05-19T22:08:22.533Z,43.35
2019-05-19T22:10:50.723Z,43.48
2019-05-19T22:13:19.151Z,43.34
2019-05-19T22:15:47.360Z,43.27
2019-05-19T22:18:15.726Z,43.46
2019-05-19T22:20:43.894Z,43.67
2019-05-19T22:23:12.097Z,43.74
2019-05-19T22:25:40.327Z,43.59
2019-05-19T22:28:08.526Z,44.56
2019-05-19T22:30:36.652Z,43.96
2019-05-19T22:33:04.994Z,44.15
2019-05-19T22:35:33.086Z,46.88
2019-05-19T22:38:01.196Z,44.55
2019-05-19T22:40:29.460Z,44.07
2019-05-19T22:42:57.579Z,44.16
2019-05-19T22:45:25.845Z,43.93
2019-05-19T22:47:53.979Z,44.27
2019-05-19T22:50:22.194Z,44.11
2019-05-19T22:52:50.333Z,44.45
2019-05-19T22:55:18.742Z,45.55
2019-05-19T22:57:46.893Z,57.48
2019-05-19T23:00:16.345Z,45.63
2019-05-19T23:02:44.581Z,45.04
2019-05-19T23:05:12.938Z,44.50
2019-05-19T23:07:41.040Z,44.65
2019-05-19T23:10:09.515Z,44.94
2019-05-19T23:12:37.639Z,44.87
2019-05-19T23:15:06.897Z,44.68
2019-05-19T23:17:35.074Z,44.97
2019-05-19T23:20:03.248Z,44.75
2019-05-19T23:22:31.325Z,44.81
2019-05-19T23:24:59.503Z,45.27
2019-05-19T23:27:27.671Z,45.59
2019-05-19T23:29:55.936Z,45.42
2019-05-19T23:32:24.246Z,45.51
2019-05-19T23:34:52.372Z,45.62
2019-05-19T23:37:20.558Z,45.87
2019-05-19T23:39:48.776Z,45.84
2019-05-19T23:42:16.887Z,46.17
2019-05-19T23:44:45.112Z,45.95
2019-05-19T23:47:13.372Z,45.89
2019-05-19T23:49:41.501Z,46.28
2019-05-19T23:52:09.707Z,46.14
2019-05-19T23:54:38.040Z,46.28
2019-05-19T23:57:06.157Z,46.09
2019-05-19T23:59:34.343Z,46.14
